createdAt,value
2022-08-28T00:02:31.362Z,16.16
2022-08-28T00:05:17.073Z,16.18
2022-08-28T00:08:02.136Z,16.18
2022-08-28T00:10:46.877Z,16.19
2022-08-28T00:13:29.909Z,16.18
2022-08-28T00:16:12.943Z,16.17
2022-08-28T00:18:56.447Z,16.17
2022-08-28T00:21:41.324Z,16.17
2022-08-28T00:24:24.440Z,16.19
2022-08-28T00:27:25.114Z,16.18
2022-08-28T00:30:09.357Z,16.09
2022-08-28T00:32:53.205Z,16.08
2022-08-28T00:35:36.361Z,16.07
2022-08-28T00:38:21.600Z,16.08
2022-08-28T00:41:05.012Z,16.04
2022-08-28T00:43:49.979Z,15.98
2022-08-28T00:46:32.825Z,15.90
2022-08-28T00:49:19.065Z,15.84
2022-08-28T00:52:15.343Z,15.79
2022-08-28T00:55:02.737Z,15.76
2022-08-28T00:57:50.463Z,15.73
2022-08-28T01:00:37.384Z,15.73
2022-08-28T01:03:20.365Z,15.73
2022-08-28T01:06:09.279Z,15.74
2022-08-28T01:08:53.890Z,15.76
2022-08-28T01:11:40.453Z,15.80
2022-08-28T01:14:24.099Z,15.84
2022-08-28T01:17:09.531Z,15.94
2022-08-28T01:19:58.332Z,16.01
2022-08-28T01:22:49.168Z,16.10
2022-08-28T01:25:36.572Z,16.17
2022-08-28T01:28:19.868Z,16.21
2022-08-28T01:31:02.980Z,16.22
2022-08-28T01:33:47.785Z,16.23
2022-08-28T01:36:31.309Z,16.21
2022-08-28T01:39:17.761Z,16.21
2022-08-28T01:42:03.529Z,16.21
2022-08-28T01:44:47.517Z,16.19
2022-08-28T01:47:30.525Z,16.18
2022-08-28T01:50:16.692Z,16.19
2022-08-28T01:52:59.718Z,16.21
2022-08-28T01:55:43.388Z,16.27
2022-08-28T01:58:29.207Z,16.34
2022-08-28T02:01:16.038Z,16.41
2022-08-28T02:03:59.210Z,16.48
2022-08-28T02:06:42.383Z,16.53
2022-08-28T02:09:25.444Z,16.57
2022-08-28T02:12:08.658Z,16.62
2022-08-28T02:14:53.184Z,16.63
2022-08-28T02:17:36.314Z,16.65
2022-08-28T02:20:19.959Z,16.67
2022-08-28T02:23:03.414Z,16.68
2022-08-28T02:25:46.533Z,16.67
2022-08-28T02:28:32.930Z,16.63
2022-08-28T02:31:17.616Z,16.58
2022-08-28T02:34:00.533Z,16.53
2022-08-28T02:36:43.652Z,16.50
2022-08-28T02:39:26.720Z,16.45
2022-08-28T02:42:09.825Z,16.43
2022-08-28T02:44:53.267Z,16.41
2022-08-28T02:47:37.701Z,16.39
2022-08-28T02:50:21.858Z,16.42
2022-08-28T02:53:04.987Z,16.48
2022-08-28T02:55:47.975Z,16.54
2022-08-28T02:58:32.861Z,16.61
2022-08-28T03:01:16.213Z,16.65
2022-08-28T03:04:02.901Z,16.70
2022-08-28T03:06:45.961Z,16.74
2022-08-28T03:09:29.106Z,16.76
2022-08-28T03:12:14.354Z,16.72
2022-08-28T03:14:57.483Z,16.68
2022-08-28T03:17:41.137Z,16.66
2022-08-28T03:20:26.673Z,16.63
2022-08-28T03:23:27.868Z,16.62
2022-08-28T03:26:13.701Z,16.62
2022-08-28T03:28:57.584Z,16.62
2022-08-28T03:31:42.985Z,16.56
2022-08-28T03:34:26.017Z,16.56
2022-08-28T03:37:10.393Z,16.56
2022-08-28T03:39:55.176Z,16.56
2022-08-28T03:42:38.459Z,16.58
2022-08-28T03:45:21.774Z,16.60
2022-08-28T03:48:05.169Z,16.60
2022-08-28T03:50:48.996Z,16.60
2022-08-28T03:53:33.978Z,16.63
2022-08-28T03:56:22.854Z,16.64
2022-08-28T03:59:06.260Z,16.66
2022-08-28T04:01:49.378Z,16.67
2022-08-28T04:04:32.473Z,16.68
2022-08-28T04:07:16.071Z,16.66
2022-08-28T04:10:00.731Z,16.66
2022-08-28T04:12:44.450Z,16.67
2022-08-28T04:15:27.989Z,16.67
2022-08-28T04:18:11.992Z,16.69
2022-08-28T04:21:03.346Z,16.70
2022-08-28T04:23:47.283Z,16.73
2022-08-28T04:26:36.506Z,16.74
2022-08-28T04:29:19.545Z,16.75
2022-08-28T04:32:03.067Z,16.78
2022-08-28T04:34:46.124Z,16.77
2022-08-28T04:37:29.274Z,16.77
2022-08-28T04:40:14.889Z,16.78
2022-08-28T04:42:59.411Z,16.82
2022-08-28T04:45:43.567Z,16.83
2022-08-28T04:48:26.847Z,16.85
2022-08-28T04:51:11.909Z,16.88
2022-08-28T04:53:55.006Z,16.91
2022-08-28T04:56:38.588Z,16.94
2022-08-28T04:59:24.030Z,16.97
2022-08-28T05:02:07.100Z,16.99
2022-08-28T05:04:50.187Z,17.01
2022-08-28T05:07:33.225Z,17.04
2022-08-28T05:10:16.387Z,17.07
2022-08-28T05:12:59.404Z,17.07
2022-08-28T05:15:45.939Z,17.09
2022-08-28T05:18:28.958Z,17.08
2022-08-28T05:21:14.598Z,17.09
2022-08-28T05:23:59.301Z,17.08
2022-08-28T05:26:42.622Z,17.06
2022-08-28T05:29:25.729Z,17.04
2022-08-28T05:32:10.074Z,17.01
2022-08-28T05:34:54.944Z,17.00
2022-08-28T05:37:37.979Z,17.01
2022-08-28T05:40:22.331Z,17.02
2022-08-28T05:43:05.436Z,17.04
2022-08-28T05:46:00.065Z,17.06
2022-08-28T05:48:45.300Z,17.07
2022-08-28T05:51:29.024Z,17.07
2022-08-28T05:54:12.992Z,17.09
2022-08-28T05:56:56.165Z,17.10
2022-08-28T05:59:39.184Z,17.11
2022-08-28T06:02:22.228Z,17.13
2022-08-28T06:05:07.783Z,17.15
2022-08-28T06:07:52.538Z,17.16
2022-08-28T06:10:37.246Z,17.20
2022-08-28T06:13:21.641Z,17.21
2022-08-28T06:16:05.654Z,17.23
2022-08-28T06:18:51.571Z,17.21
2022-08-28T06:21:36.897Z,17.25
2022-08-28T06:24:20.505Z,17.29
2022-08-28T06:27:03.612Z,17.36
2022-08-28T06:29:46.585Z,17.39
2022-08-28T06:32:29.797Z,17.43
2022-08-28T06:35:12.929Z,17.43
2022-08-28T06:37:57.370Z,17.42
2022-08-28T06:40:42.184Z,17.42
2022-08-28T06:43:26.221Z,17.43
2022-08-28T06:46:09.501Z,17.41
2022-08-28T06:48:52.796Z,17.41
2022-08-28T06:51:36.144Z,17.41
2022-08-28T06:54:23.149Z,17.41
2022-08-28T06:57:06.664Z,17.35
2022-08-28T06:59:49.922Z,17.20
2022-08-28T07:02:33.041Z,17.14
2022-08-28T07:05:16.106Z,17.08
2022-08-28T07:07:59.190Z,17.00
2022-08-28T07:10:43.524Z,16.95
2022-08-28T07:13:31.017Z,16.94
2022-08-28T07:16:19.000Z,16.95
2022-08-28T07:19:04.865Z,16.97
2022-08-28T07:21:48.178Z,16.98
2022-08-28T07:24:31.618Z,16.98
2022-08-28T07:27:19.024Z,16.97
2022-08-28T07:30:02.813Z,16.98
2022-08-28T07:32:49.225Z,17.02
2022-08-28T07:35:32.266Z,17.05
2022-08-28T07:38:15.380Z,17.09
2022-08-28T07:40:58.950Z,17.12
2022-08-28T07:44:01.238Z,17.16
2022-08-28T07:46:44.837Z,17.23
2022-08-28T07:49:28.193Z,17.30
2022-08-28T07:52:12.842Z,17.37
2022-08-28T07:54:56.543Z,17.41
2022-08-28T07:57:39.771Z,17.45
2022-08-28T08:00:24.518Z,17.52
2022-08-28T08:03:07.792Z,17.56
2022-08-28T08:05:55.200Z,17.59
2022-08-28T08:08:38.417Z,17.62
2022-08-28T08:11:21.509Z,17.62
2022-08-28T08:14:07.513Z,17.65
2022-08-28T08:16:52.549Z,17.67
2022-08-28T08:19:35.852Z,17.67
2022-08-28T08:22:19.034Z,17.72
2022-08-28T08:25:03.784Z,17.82
2022-08-28T08:27:48.123Z,17.94
2022-08-28T08:30:31.211Z,18.05
2022-08-28T08:33:15.612Z,18.15
2022-08-28T08:35:58.709Z,18.16
2022-08-28T08:38:42.711Z,18.15
2022-08-28T08:41:31.953Z,18.17
2022-08-28T08:44:33.667Z,18.26
2022-08-28T08:47:22.388Z,18.28
2022-08-28T08:50:10.578Z,18.28
2022-08-28T08:53:09.989Z,18.31
2022-08-28T08:55:55.372Z,18.34
2022-08-28T08:58:42.206Z,18.37
2022-08-28T09:01:32.476Z,18.43
2022-08-28T09:04:26.765Z,18.45
2022-08-28T09:07:18.832Z,18.49
2022-08-28T09:10:01.963Z,18.52
2022-08-28T09:12:54.405Z,18.47
2022-08-28T09:15:45.416Z,18.44
2022-08-28T09:18:34.622Z,18.47
2022-08-28T09:21:29.245Z,18.53
2022-08-28T09:24:21.187Z,18.64
2022-08-28T09:27:09.934Z,18.75
2022-08-28T09:30:07.343Z,18.84
2022-08-28T09:33:00.977Z,18.94
2022-08-28T09:35:44.447Z,19.07
2022-08-28T09:38:27.962Z,19.12
2022-08-28T09:41:42.021Z,19.12
2022-08-28T09:44:25.505Z,19.16
2022-08-28T09:47:08.562Z,19.27
2022-08-28T09:49:52.230Z,19.42
2022-08-28T09:52:35.246Z,19.49
2022-08-28T09:55:25.119Z,19.55
2022-08-28T09:58:10.269Z,19.57
2022-08-28T10:00:58.890Z,19.56
2022-08-28T10:03:49.535Z,19.59
2022-08-28T10:06:35.937Z,19.64
2022-08-28T10:09:27.916Z,19.69
2022-08-28T10:12:20.113Z,19.73
2022-08-28T10:15:11.300Z,19.68
2022-08-28T10:18:10.822Z,19.65
2022-08-28T10:21:01.106Z,19.64
2022-08-28T10:24:05.381Z,19.64
2022-08-28T10:26:54.378Z,19.59
2022-08-28T10:29:49.654Z,19.50
2022-08-28T10:32:43.700Z,19.43
2022-08-28T10:35:33.546Z,19.46
2022-08-28T10:38:18.920Z,19.54
2022-08-28T10:41:07.236Z,19.63
2022-08-28T10:43:52.614Z,19.70
2022-08-28T10:46:42.438Z,19.72
2022-08-28T10:49:32.919Z,19.67
2022-08-28T10:52:21.050Z,19.49
2022-08-28T10:55:06.929Z,19.41
2022-08-28T10:57:54.832Z,19.41
2022-08-28T11:00:40.834Z,19.47
2022-08-28T11:03:35.020Z,19.48
2022-08-28T11:06:31.450Z,19.37
2022-08-28T11:09:27.083Z,19.31
2022-08-28T11:12:35.246Z,19.32
2022-08-28T11:15:45.980Z,19.37
2022-08-28T11:18:56.880Z,19.44
2022-08-28T11:21:48.433Z,19.57
2022-08-28T11:24:45.116Z,19.66
2022-08-28T11:27:31.374Z,19.61
2022-08-28T11:30:33.918Z,19.64
2022-08-28T11:33:39.216Z,19.70
2022-08-28T11:37:00.855Z,19.70
2022-08-28T11:39:45.375Z,19.63
2022-08-28T11:42:38.662Z,19.53
2022-08-28T11:45:42.772Z,19.45
2022-08-28T11:48:50.623Z,19.35
2022-08-28T11:51:50.001Z,19.33
2022-08-28T11:54:46.850Z,19.36
2022-08-28T11:57:48.606Z,19.47
2022-08-28T12:00:50.448Z,19.76
2022-08-28T12:03:36.802Z,20.21
2022-08-28T12:06:49.090Z,20.47
2022-08-28T12:09:42.325Z,20.47
2022-08-28T12:12:52.398Z,20.52
2022-08-28T12:15:42.954Z,20.47
2022-08-28T12:19:01.287Z,20.40
2022-08-28T12:21:44.905Z,20.34
2022-08-28T12:24:30.113Z,20.27
2022-08-28T12:27:14.782Z,20.19
2022-08-28T12:29:58.909Z,20.14
2022-08-28T12:32:47.627Z,20.16
2022-08-28T12:35:31.656Z,20.19
2022-08-28T12:38:20.256Z,20.15
2022-08-28T12:41:04.810Z,20.10
2022-08-28T12:43:51.616Z,20.06
2022-08-28T12:46:43.175Z,20.04
2022-08-28T12:49:34.122Z,19.96
2022-08-28T12:52:20.219Z,19.86
2022-08-28T12:55:03.393Z,19.76
2022-08-28T12:57:49.529Z,19.71
2022-08-28T13:00:35.679Z,19.70
2022-08-28T13:03:20.374Z,19.74
2022-08-28T13:06:06.542Z,19.79
2022-08-28T13:08:50.250Z,19.81
2022-08-28T13:11:38.558Z,19.78
2022-08-28T13:14:42.249Z,19.73
2022-08-28T13:17:45.019Z,19.77
2022-08-28T13:20:31.003Z,19.79
2022-08-28T13:23:30.522Z,19.82
2022-08-28T13:26:14.357Z,19.82
2022-08-28T13:28:59.294Z,19.77
2022-08-28T13:31:44.156Z,19.65
2022-08-28T13:34:29.669Z,19.56
2022-08-28T13:37:41.584Z,19.53
2022-08-28T13:40:56.496Z,19.45
2022-08-28T13:43:44.769Z,19.33
2022-08-28T13:46:27.915Z,19.31
2022-08-28T13:49:12.403Z,19.32
2022-08-28T13:51:57.086Z,19.38
2022-08-28T13:54:41.577Z,19.38
2022-08-28T13:57:28.749Z,19.43
2022-08-28T14:00:14.210Z,19.43
2022-08-28T14:03:15.652Z,19.43
2022-08-28T14:06:00.197Z,19.47
2022-08-28T14:08:45.292Z,19.53
2022-08-28T14:11:28.430Z,19.54
2022-08-28T14:14:12.311Z,19.55
2022-08-28T14:16:56.605Z,19.56
2022-08-28T14:19:39.677Z,19.63
2022-08-28T14:22:24.085Z,19.76
2022-08-28T14:25:07.793Z,19.89
2022-08-28T14:27:51.035Z,20.06
2022-08-28T14:30:36.192Z,20.23
2022-08-28T14:33:20.863Z,20.24
2022-08-28T14:36:04.098Z,20.27
2022-08-28T14:38:53.666Z,20.30
2022-08-28T14:41:38.432Z,20.35
2022-08-28T14:44:22.865Z,20.42
2022-08-28T14:47:06.129Z,20.41
2022-08-28T14:49:49.319Z,20.42
2022-08-28T14:52:32.409Z,20.41
2022-08-28T14:55:18.773Z,20.47
2022-08-28T14:58:01.921Z,20.60
2022-08-28T15:00:46.776Z,20.77
2022-08-28T15:03:29.911Z,21.01
2022-08-28T15:06:12.969Z,21.22
2022-08-28T15:08:56.404Z,21.48
2022-08-28T15:11:42.248Z,21.65
2022-08-28T15:14:25.798Z,21.68
2022-08-28T15:17:09.356Z,21.53
2022-08-28T15:19:52.377Z,21.41
2022-08-28T15:22:35.875Z,21.29
2022-08-28T15:25:19.181Z,21.10
2022-08-28T15:28:04.056Z,20.97
2022-08-28T15:30:48.021Z,20.90
2022-08-28T15:33:31.073Z,20.83
2022-08-28T15:36:14.300Z,20.78
2022-08-28T15:39:14.982Z,20.74
2022-08-28T15:41:58.322Z,20.63
2022-08-28T15:44:43.097Z,20.63
2022-08-28T15:47:26.021Z,20.62
2022-08-28T15:50:11.305Z,20.61
2022-08-28T15:52:54.600Z,20.60
2022-08-28T15:55:37.738Z,20.59
2022-08-28T15:58:20.849Z,20.54
2022-08-28T16:01:05.714Z,20.48
2022-08-28T16:03:48.837Z,20.44
2022-08-28T16:06:31.975Z,20.47
2022-08-28T16:09:15.216Z,20.47
2022-08-28T16:11:58.437Z,20.54
2022-08-28T16:14:41.942Z,20.62
2022-08-28T16:17:26.365Z,20.68
2022-08-28T16:20:13.074Z,20.74
2022-08-28T16:22:56.252Z,20.78
2022-08-28T16:25:39.794Z,20.81
2022-08-28T16:28:22.867Z,20.76
2022-08-28T16:31:07.327Z,20.68
2022-08-28T16:33:51.778Z,20.54
2022-08-28T16:36:35.287Z,20.43
2022-08-28T16:39:18.467Z,20.34
2022-08-28T16:42:01.615Z,20.22
2022-08-28T16:44:44.606Z,20.18
2022-08-28T16:47:27.823Z,20.15
2022-08-28T16:50:17.139Z,20.13
2022-08-28T16:53:03.658Z,20.09
2022-08-28T16:55:49.755Z,20.04
2022-08-28T16:58:33.042Z,20.02
2022-08-28T17:01:16.547Z,19.96
2022-08-28T17:03:59.721Z,19.94
2022-08-28T17:06:45.918Z,19.92
2022-08-28T17:09:29.036Z,19.85
2022-08-28T17:12:12.238Z,19.81
2022-08-28T17:14:56.520Z,19.77
2022-08-28T17:17:39.747Z,19.76
2022-08-28T17:20:40.934Z,19.73
2022-08-28T17:23:26.070Z,19.71
2022-08-28T17:26:09.939Z,19.68
2022-08-28T17:28:53.163Z,19.63
2022-08-28T17:31:36.305Z,19.60
2022-08-28T17:34:21.336Z,19.54
2022-08-28T17:37:05.161Z,19.49
2022-08-28T17:39:49.608Z,19.47
2022-08-28T17:42:32.718Z,19.49
2022-08-28T17:45:16.301Z,19.50
2022-08-28T17:47:59.343Z,19.48
2022-08-28T17:50:42.613Z,19.43
2022-08-28T17:53:27.782Z,19.37
2022-08-28T17:56:13.170Z,19.32
2022-08-28T17:58:56.205Z,19.26
2022-08-28T18:01:41.079Z,19.21
2022-08-28T18:04:24.815Z,19.17
2022-08-28T18:07:08.690Z,19.13
2022-08-28T18:09:51.897Z,19.08
2022-08-28T18:12:36.775Z,19.05
2022-08-28T18:15:19.846Z,19.02
2022-08-28T18:18:02.963Z,19.01
2022-08-28T18:20:46.024Z,19.00
2022-08-28T18:23:29.795Z,19.01
2022-08-28T18:26:13.379Z,18.97
2022-08-28T18:28:57.916Z,18.89
2022-08-28T18:31:41.667Z,18.87
2022-08-28T18:34:24.825Z,18.86
2022-08-28T18:37:08.064Z,18.81
2022-08-28T18:39:51.575Z,18.76
2022-08-28T18:42:35.011Z,18.67
2022-08-28T18:45:19.708Z,18.52
2022-08-28T18:48:02.946Z,18.41
2022-08-28T18:50:47.392Z,18.33
2022-08-28T18:53:30.443Z,18.31
2022-08-28T18:56:13.497Z,18.24
2022-08-28T18:58:57.234Z,18.21
2022-08-28T19:01:42.093Z,18.20
2022-08-28T19:04:25.494Z,18.17
2022-08-28T19:07:08.551Z,18.15
2022-08-28T19:09:51.549Z,18.11
2022-08-28T19:12:35.135Z,18.07
2022-08-28T19:15:19.137Z,18.03
2022-08-28T19:18:04.220Z,18.00
2022-08-28T19:20:47.431Z,17.97
2022-08-28T19:23:30.466Z,17.92
2022-08-28T19:26:13.768Z,17.87
2022-08-28T19:28:57.435Z,17.80
2022-08-28T19:31:41.182Z,17.77
2022-08-28T19:34:25.863Z,17.74
2022-08-28T19:37:08.903Z,17.71
2022-08-28T19:39:56.480Z,17.67
2022-08-28T19:42:40.113Z,17.60
2022-08-28T19:45:24.151Z,17.55
2022-08-28T19:48:07.365Z,17.46
2022-08-28T19:51:01.702Z,17.38
2022-08-28T19:53:44.713Z,17.31
2022-08-28T19:56:28.512Z,17.22
2022-08-28T19:59:11.598Z,17.15
2022-08-28T20:01:54.688Z,17.13
2022-08-28T20:04:38.167Z,17.09
2022-08-28T20:07:22.738Z,17.05
2022-08-28T20:10:07.469Z,17.01
2022-08-28T20:12:50.407Z,16.96
2022-08-28T20:15:33.451Z,16.90
2022-08-28T20:18:16.737Z,16.84
2022-08-28T20:21:01.036Z,16.80
2022-08-28T20:23:45.637Z,16.76
2022-08-28T20:26:28.836Z,16.72
2022-08-28T20:29:12.454Z,16.70
2022-08-28T20:31:55.483Z,16.69
2022-08-28T20:34:43.855Z,16.66
2022-08-28T20:37:27.841Z,16.59
2022-08-28T20:40:13.093Z,16.53
2022-08-28T20:42:56.159Z,16.48
2022-08-28T20:45:39.214Z,16.46
2022-08-28T20:48:22.294Z,16.42
2022-08-28T20:51:07.575Z,16.39
2022-08-28T20:53:53.632Z,16.36
2022-08-28T20:56:38.618Z,16.31
2022-08-28T20:59:22.434Z,16.23
2022-08-28T21:02:09.609Z,16.17
2022-08-28T21:04:53.396Z,16.12
2022-08-28T21:07:36.479Z,16.08
2022-08-28T21:10:19.874Z,16.08
2022-08-28T21:13:05.272Z,16.11
2022-08-28T21:15:48.432Z,16.15
2022-08-28T21:18:31.565Z,16.19
2022-08-28T21:21:15.057Z,16.24
2022-08-28T21:24:00.747Z,16.25
2022-08-28T21:26:45.757Z,16.28
2022-08-28T21:29:30.202Z,16.28
2022-08-28T21:32:13.313Z,16.25
2022-08-28T21:34:56.537Z,16.21
2022-08-28T21:37:40.933Z,16.15
2022-08-28T21:40:24.165Z,16.10
2022-08-28T21:43:07.392Z,16.07
2022-08-28T21:45:59.953Z,15.98
2022-08-28T21:48:44.611Z,15.94
2022-08-28T21:51:27.775Z,15.89
2022-08-28T21:54:10.856Z,15.83
2022-08-28T21:56:58.504Z,15.77
2022-08-28T21:59:42.795Z,15.75
2022-08-28T22:02:27.802Z,15.73
2022-08-28T22:05:11.594Z,15.73
2022-08-28T22:07:54.672Z,15.70
2022-08-28T22:10:40.469Z,15.68
2022-08-28T22:13:24.197Z,15.65
2022-08-28T22:16:08.284Z,15.63
2022-08-28T22:18:52.894Z,15.63
2022-08-28T22:21:53.146Z,15.60
2022-08-28T22:24:36.662Z,15.61
2022-08-28T22:27:19.722Z,15.59
2022-08-28T22:30:03.003Z,15.58
2022-08-28T22:32:46.043Z,15.57
2022-08-28T22:35:30.495Z,15.53
2022-08-28T22:38:13.641Z,15.50
2022-08-28T22:40:56.809Z,15.47
2022-08-28T22:43:40.716Z,15.46
2022-08-28T22:46:24.570Z,15.47
2022-08-28T22:49:07.721Z,15.49
2022-08-28T22:51:52.140Z,15.54
2022-08-28T22:54:35.206Z,15.59
2022-08-28T22:57:18.243Z,15.60
2022-08-28T23:00:03.555Z,15.60
2022-08-28T23:02:47.590Z,15.58
2022-08-28T23:05:31.542Z,15.58
2022-08-28T23:08:16.101Z,15.60
2022-08-28T23:11:00.076Z,15.61
2022-08-28T23:13:43.146Z,15.59
2022-08-28T23:16:26.254Z,15.54
2022-08-28T23:19:13.485Z,15.50
2022-08-28T23:21:57.210Z,15.45
2022-08-28T23:24:41.773Z,15.44
2022-08-28T23:27:40.247Z,15.43
2022-08-28T23:30:24.736Z,15.44
2022-08-28T23:33:09.186Z,15.43
2022-08-28T23:35:52.399Z,15.40
2022-08-28T23:38:36.889Z,15.37
2022-08-28T23:41:21.423Z,15.32
2022-08-28T23:44:08.695Z,15.33
2022-08-28T23:46:52.271Z,15.36
2022-08-28T23:49:35.410Z,15.38
2022-08-28T23:52:26.220Z,15.39
2022-08-28T23:55:10.664Z,15.42
2022-08-28T23:57:55.093Z,15.41
